sensor_id;sensor_type;location;lat;lon;timestamp;P1;durP1;ratioP1;P2;durP2;ratioP2
54557;SDS011;40452;50.080;20.040;2022-10-17T04:14:26;15.25;;;9.73;;
54557;SDS011;40452;50.080;20.040;2022-10-17T04:16:51;15.52;;;9.30;;
54557;SDS011;40452;50.080;20.040;2022-10-17T04:19:17;16.48;;;9.43;;
54557;SDS011;40452;50.080;20.040;2022-10-17T04:21:43;17.27;;;9.02;;
54557;SDS011;40452;50.080;20.040;2022-10-17T04:24:09;13.18;;;9.20;;
54557;SDS011;40452;50.080;20.040;2022-10-17T04:26:35;15.05;;;8.95;;
54557;SDS011;40452;50.080;20.040;2022-10-17T04:29:01;14.35;;;9.27;;
54557;SDS011;40452;50.080;20.040;2022-10-17T04:31:26;11.82;;;8.05;;
54557;SDS011;40452;50.080;20.040;2022-10-17T04:33:52;12.73;;;8.93;;
54557;SDS011;40452;50.080;20.040;2022-10-17T04:36:18;14.15;;;9.15;;
54557;SDS011;40452;50.080;20.040;2022-10-17T04:38:44;12.27;;;8.57;;
54557;SDS011;40452;50.080;20.040;2022-10-17T04:41:11;11.38;;;7.85;;
54557;SDS011;40452;50.080;20.040;2022-10-17T04:43:39;13.75;;;8.20;;
54557;SDS011;40452;50.080;20.040;2022-10-17T04:46:09;13.20;;;8.10;;
54557;SDS011;40452;50.080;20.040;2022-10-17T04:48:36;13.65;;;8.23;;
54557;SDS011;40452;50.080;20.040;2022-10-17T04:51:04;14.70;;;7.75;;
54557;SDS011;40452;50.080;20.040;2022-10-17T04:53:32;13.40;;;8.32;;
54557;SDS011;40452;50.080;20.040;2022-10-17T04:55:59;14.05;;;7.95;;
54557;SDS011;40452;50.080;20.040;2022-10-17T04:58:24;16.98;;;9.35;;
54557;SDS011;40452;50.080;20.040;2022-10-17T05:00:52;16.60;;;8.75;;
54557;SDS011;40452;50.080;20.040;2022-10-17T05:03:17;24.25;;;9.63;;
54557;SDS011;40452;50.080;20.040;2022-10-17T05:05:43;18.73;;;10.25;;
54557;SDS011;40452;50.080;20.040;2022-10-17T05:08:09;22.42;;;10.73;;
54557;SDS011;40452;50.080;20.040;2022-10-17T05:10:40;19.75;;;10.50;;
54557;SDS011;40452;50.080;20.040;2022-10-17T05:13:08;19.95;;;10.02;;
54557;SDS011;40452;50.080;20.040;2022-10-17T05:15:34;22.35;;;10.07;;
54557;SDS011;40452;50.080;20.040;2022-10-17T05:18:00;26.88;;;11.27;;
54557;SDS011;40452;50.080;20.040;2022-10-17T05:20:26;24.17;;;10.85;;
54557;SDS011;40452;50.080;20.040;2022-10-17T05:22:52;22.65;;;10.00;;
54557;SDS011;40452;50.080;20.040;2022-10-17T05:25:18;23.35;;;10.68;;
54557;SDS011;40452;50.080;20.040;2022-10-17T05:27:43;24.15;;;10.80;;
54557;SDS011;40452;50.080;20.040;2022-10-17T05:30:09;23.67;;;10.68;;
54557;SDS011;40452;50.080;20.040;2022-10-17T05:32:35;23.67;;;10.48;;
54557;SDS011;40452;50.080;20.040;2022-10-17T05:35:00;23.55;;;10.13;;
54557;SDS011;40452;50.080;20.040;2022-10-17T05:37:28;17.98;;;9.93;;
54557;SDS011;40452;50.080;20.040;2022-10-17T05:39:54;20.88;;;9.85;;
54557;SDS011;40452;50.080;20.040;2022-10-17T05:42:20;20.55;;;9.80;;
54557;SDS011;40452;50.080;20.040;2022-10-17T05:44:45;18.75;;;9.93;;
54557;SDS011;40452;50.080;20.040;2022-10-17T05:47:11;16.88;;;9.60;;
54557;SDS011;40452;50.080;20.040;2022-10-17T05:49:36;17.75;;;9.93;;
54557;SDS011;40452;50.080;20.040;2022-10-17T05:52:02;16.77;;;9.38;;
54557;SDS011;40452;50.080;20.040;2022-10-17T05:54:27;18.63;;;9.77;;
54557;SDS011;40452;50.080;20.040;2022-10-17T05:56:53;18.90;;;9.18;;
54557;SDS011;40452;50.080;20.040;2022-10-17T13:19:23;13.40;;;7.38;;
54557;SDS011;40452;50.080;20.040;2022-10-17T13:21:51;12.15;;;7.20;;
54557;SDS011;40452;50.080;20.040;2022-10-17T13:26:46;8.82;;;6.50;;
54557;SDS011;40452;50.080;20.040;2022-10-17T13:29:13;11.88;;;7.20;;
54557;SDS011;40452;50.080;20.040;2022-10-17T13:31:40;9.85;;;6.82;;
54557;SDS011;40452;50.080;20.040;2022-10-17T13:34:17;11.65;;;7.00;;
54557;SDS011;40452;50.080;20.040;2022-10-17T13:36:52;12.02;;;7.20;;
54557;SDS011;40452;50.080;20.040;2022-10-17T13:39:24;12.30;;;7.13;;
54557;SDS011;40452;50.080;20.040;2022-10-17T13:41:52;11.20;;;7.80;;
54557;SDS011;40452;50.080;20.040;2022-10-17T13:44:20;10.75;;;7.50;;
54557;SDS011;40452;50.080;20.040;2022-10-17T13:46:49;13.48;;;7.57;;
54557;SDS011;40452;50.080;20.040;2022-10-17T13:49:20;12.80;;;7.72;;
54557;SDS011;40452;50.080;20.040;2022-10-17T13:52:04;13.32;;;7.63;;
54557;SDS011;40452;50.080;20.040;2022-10-17T13:54:38;12.20;;;7.63;;
54557;SDS011;40452;50.080;20.040;2022-10-17T13:57:13;12.43;;;6.78;;
54557;SDS011;40452;50.080;20.040;2022-10-17T13:59:45;10.70;;;7.05;;
54557;SDS011;40452;50.080;20.040;2022-10-17T14:02:21;22.92;;;14.80;;
54557;SDS011;40452;50.080;20.040;2022-10-17T14:05:07;40.38;;;22.10;;
54557;SDS011;40452;50.080;20.040;2022-10-17T14:07:43;35.08;;;22.67;;
54557;SDS011;40452;50.080;20.040;2022-10-17T14:10:29;32.63;;;19.60;;
54557;SDS011;40452;50.080;20.040;2022-10-17T14:12:56;29.15;;;18.00;;
54557;SDS011;40452;50.080;20.040;2022-10-17T14:15:27;26.25;;;17.45;;
54557;SDS011;40452;50.080;20.040;2022-10-17T14:18:04;26.17;;;19.02;;
54557;SDS011;40452;50.080;20.040;2022-10-17T14:20:31;25.27;;;17.02;;
54557;SDS011;40452;50.080;20.040;2022-10-17T14:22:58;28.33;;;16.98;;
54557;SDS011;40452;50.080;20.040;2022-10-17T14:25:35;27.15;;;16.98;;
54557;SDS011;40452;50.080;20.040;2022-10-17T14:28:11;24.75;;;15.85;;
54557;SDS011;40452;50.080;20.040;2022-10-17T14:30:46;24.95;;;16.13;;
54557;SDS011;40452;50.080;20.040;2022-10-17T14:33:17;25.10;;;15.68;;
54557;SDS011;40452;50.080;20.040;2022-10-17T14:35:53;25.45;;;14.98;;
54557;SDS011;40452;50.080;20.040;2022-10-17T14:38:21;21.88;;;14.50;;
54557;SDS011;40452;50.080;20.040;2022-10-17T14:40:51;22.50;;;14.68;;
54557;SDS011;40452;50.080;20.040;2022-10-17T14:43:37;23.48;;;13.95;;
54557;SDS011;40452;50.080;20.040;2022-10-17T14:46:02;22.77;;;13.80;;
54557;SDS011;40452;50.080;20.040;2022-10-17T14:48:29;26.35;;;13.52;;
54557;SDS011;40452;50.080;20.040;2022-10-17T14:51:04;26.10;;;13.40;;
54557;SDS011;40452;50.080;20.040;2022-10-17T14:53:34;19.50;;;12.68;;
54557;SDS011;40452;50.080;20.040;2022-10-17T14:56:02;21.00;;;12.77;;
54557;SDS011;40452;50.080;20.040;2022-10-17T14:58:33;26.25;;;15.20;;
54557;SDS011;40452;50.080;20.040;2022-10-17T15:00:59;22.17;;;14.23;;
54557;SDS011;40452;50.080;20.040;2022-10-17T15:03:25;21.52;;;13.15;;
54557;SDS011;40452;50.080;20.040;2022-10-17T15:05:51;23.40;;;13.77;;
54557;SDS011;40452;50.080;20.040;2022-10-17T15:08:19;19.60;;;12.30;;
54557;SDS011;40452;50.080;20.040;2022-10-17T15:10:46;23.48;;;13.85;;
54557;SDS011;40452;50.080;20.040;2022-10-17T15:13:13;20.83;;;13.02;;
54557;SDS011;40452;50.080;20.040;2022-10-17T15:15:39;20.42;;;12.50;;
54557;SDS011;40452;50.080;20.040;2022-10-17T15:18:05;23.92;;;12.73;;
54557;SDS011;40452;50.080;20.040;2022-10-17T15:20:32;19.48;;;12.38;;
54557;SDS011;40452;50.080;20.040;2022-10-17T15:22:59;19.08;;;11.98;;
54557;SDS011;40452;50.080;20.040;2022-10-17T15:25:26;22.65;;;12.48;;
54557;SDS011;40452;50.080;20.040;2022-10-17T15:27:52;19.13;;;12.38;;
54557;SDS011;40452;50.080;20.040;2022-10-17T15:30:20;19.60;;;11.77;;
54557;SDS011;40452;50.080;20.040;2022-10-17T15:32:48;19.30;;;11.55;;
54557;SDS011;40452;50.080;20.040;2022-10-17T15:35:14;17.17;;;11.60;;
54557;SDS011;40452;50.080;20.040;2022-10-17T15:37:41;24.33;;;11.00;;
54557;SDS011;40452;50.080;20.040;2022-10-17T15:40:14;20.42;;;11.70;;
54557;SDS011;40452;50.080;20.040;2022-10-17T15:42:41;17.88;;;11.18;;
54557;SDS011;40452;50.080;20.040;2022-10-17T15:45:08;18.65;;;11.10;;
54557;SDS011;40452;50.080;20.040;2022-10-17T15:47:39;17.30;;;11.00;;
54557;SDS011;40452;50.080;20.040;2022-10-17T15:50:06;17.90;;;11.18;;
54557;SDS011;40452;50.080;20.040;2022-10-17T15:52:35;18.80;;;10.27;;
54557;SDS011;40452;50.080;20.040;2022-10-17T15:55:01;17.20;;;10.88;;
54557;SDS011;40452;50.080;20.040;2022-10-17T15:57:28;19.02;;;11.38;;
54557;SDS011;40452;50.080;20.040;2022-10-17T15:59:57;19.58;;;11.85;;
54557;SDS011;40452;50.080;20.040;2022-10-17T16:02:24;19.52;;;11.27;;
54557;SDS011;40452;50.080;20.040;2022-10-17T16:04:50;19.05;;;11.73;;
54557;SDS011;40452;50.080;20.040;2022-10-17T16:07:17;19.05;;;12.48;;
54557;SDS011;40452;50.080;20.040;2022-10-17T16:09:42;17.08;;;11.77;;
54557;SDS011;40452;50.080;20.040;2022-10-17T16:12:14;18.00;;;11.32;;
54557;SDS011;40452;50.080;20.040;2022-10-17T16:14:42;19.95;;;11.50;;
54557;SDS011;40452;50.080;20.040;2022-10-17T16:17:16;19.10;;;12.10;;
54557;SDS011;40452;50.080;20.040;2022-10-17T16:19:42;21.63;;;12.90;;
54557;SDS011;40452;50.080;20.040;2022-10-17T16:22:16;16.30;;;11.05;;
54557;SDS011;40452;50.080;20.040;2022-10-17T16:24:48;18.05;;;11.98;;
54557;SDS011;40452;50.080;20.040;2022-10-17T16:27:13;19.90;;;11.50;;
54557;SDS011;40452;50.080;20.040;2022-10-17T16:29:39;15.35;;;11.30;;
54557;SDS011;40452;50.080;20.040;2022-10-17T16:32:04;19.45;;;11.90;;
54557;SDS011;40452;50.080;20.040;2022-10-17T16:34:30;20.88;;;11.60;;
54557;SDS011;40452;50.080;20.040;2022-10-17T16:36:56;21.23;;;11.70;;
54557;SDS011;40452;50.080;20.040;2022-10-17T16:39:21;18.00;;;11.55;;
54557;SDS011;40452;50.080;20.040;2022-10-17T16:41:47;23.90;;;13.45;;
54557;SDS011;40452;50.080;20.040;2022-10-17T16:44:12;24.17;;;13.73;;
54557;SDS011;40452;50.080;20.040;2022-10-17T16:46:38;22.48;;;13.75;;
54557;SDS011;40452;50.080;20.040;2022-10-17T16:49:04;24.50;;;14.40;;
54557;SDS011;40452;50.080;20.040;2022-10-17T16:51:30;26.52;;;14.50;;
54557;SDS011;40452;50.080;20.040;2022-10-17T16:53:57;25.02;;;13.98;;
54557;SDS011;40452;50.080;20.040;2022-10-17T16:56:24;25.27;;;14.68;;
54557;SDS011;40452;50.080;20.040;2022-10-17T16:58:53;24.35;;;14.30;;
54557;SDS011;40452;50.080;20.040;2022-10-17T17:01:21;24.92;;;14.07;;
54557;SDS011;40452;50.080;20.040;2022-10-17T17:03:48;21.45;;;14.73;;
54557;SDS011;40452;50.080;20.040;2022-10-17T17:06:16;24.50;;;14.73;;
54557;SDS011;40452;50.080;20.040;2022-10-17T17:08:44;29.42;;;13.38;;
54557;SDS011;40452;50.080;20.040;2022-10-17T17:11:11;26.92;;;14.38;;
54557;SDS011;40452;50.080;20.040;2022-10-17T17:13:38;23.70;;;14.32;;
54557;SDS011;40452;50.080;20.040;2022-10-17T17:16:09;23.75;;;13.55;;
54557;SDS011;40452;50.080;20.040;2022-10-17T17:18:37;19.63;;;12.80;;
54557;SDS011;40452;50.080;20.040;2022-10-17T17:21:04;23.02;;;13.27;;
54557;SDS011;40452;50.080;20.040;2022-10-17T17:23:34;27.67;;;13.85;;
54557;SDS011;40452;50.080;20.040;2022-10-17T17:26:04;24.70;;;13.77;;
54557;SDS011;40452;50.080;20.040;2022-10-17T17:28:32;25.50;;;13.77;;
54557;SDS011;40452;50.080;20.040;2022-10-17T17:30:58;26.77;;;13.25;;
54557;SDS011;40452;50.080;20.040;2022-10-17T17:33:24;21.75;;;13.18;;
54557;SDS011;40452;50.080;20.040;2022-10-17T17:35:57;18.95;;;12.98;;
54557;SDS011;40452;50.080;20.040;2022-10-17T17:38:24;20.67;;;12.82;;
54557;SDS011;40452;50.080;20.040;2022-10-17T17:40:52;23.17;;;13.35;;
54557;SDS011;40452;50.080;20.040;2022-10-17T17:43:18;22.98;;;13.23;;
54557;SDS011;40452;50.080;20.040;2022-10-17T17:45:45;22.80;;;12.82;;
54557;SDS011;40452;50.080;20.040;2022-10-17T17:48:11;21.30;;;13.65;;
54557;SDS011;40452;50.080;20.040;2022-10-17T17:50:38;25.00;;;13.43;;
54557;SDS011;40452;50.080;20.040;2022-10-17T17:53:05;22.92;;;13.88;;
54557;SDS011;40452;50.080;20.040;2022-10-17T17:55:31;20.10;;;13.15;;
54557;SDS011;40452;50.080;20.040;2022-10-17T17:57:57;22.10;;;13.52;;
54557;SDS011;40452;50.080;20.040;2022-10-17T18:00:23;26.30;;;12.85;;
54557;SDS011;40452;50.080;20.040;2022-10-17T18:02:49;27.15;;;13.50;;
54557;SDS011;40452;50.080;20.040;2022-10-17T18:05:14;23.05;;;13.30;;
54557;SDS011;40452;50.080;20.040;2022-10-17T18:07:40;24.02;;;13.70;;
54557;SDS011;40452;50.080;20.040;2022-10-17T18:10:06;20.52;;;13.65;;
54557;SDS011;40452;50.080;20.040;2022-10-17T18:12:32;26.90;;;13.45;;
54557;SDS011;40452;50.080;20.040;2022-10-17T18:14:58;22.05;;;13.07;;
54557;SDS011;40452;50.080;20.040;2022-10-17T18:17:25;25.17;;;13.68;;
54557;SDS011;40452;50.080;20.040;2022-10-17T18:19:50;22.35;;;13.05;;
54557;SDS011;40452;50.080;20.040;2022-10-17T18:22:16;26.17;;;14.13;;
54557;SDS011;40452;50.080;20.040;2022-10-17T18:24:41;23.38;;;13.30;;
54557;SDS011;40452;50.080;20.040;2022-10-17T18:27:07;25.33;;;13.88;;
54557;SDS011;40452;50.080;20.040;2022-10-17T18:29:32;26.63;;;15.02;;
54557;SDS011;40452;50.080;20.040;2022-10-17T18:31:58;26.13;;;14.65;;
54557;SDS011;40452;50.080;20.040;2022-10-17T18:34:24;24.30;;;13.55;;
54557;SDS011;40452;50.080;20.040;2022-10-17T18:36:51;23.50;;;13.93;;
54557;SDS011;40452;50.080;20.040;2022-10-17T18:39:17;23.42;;;14.07;;
54557;SDS011;40452;50.080;20.040;2022-10-17T18:41:43;23.75;;;14.02;;
54557;SDS011;40452;50.080;20.040;2022-10-17T18:44:09;21.55;;;14.07;;
54557;SDS011;40452;50.080;20.040;2022-10-17T18:46:36;24.08;;;13.68;;
54557;SDS011;40452;50.080;20.040;2022-10-17T18:49:05;27.30;;;15.77;;
54557;SDS011;40452;50.080;20.040;2022-10-17T18:51:32;23.38;;;13.52;;
54557;SDS011;40452;50.080;20.040;2022-10-17T18:53:58;24.42;;;14.50;;
54557;SDS011;40452;50.080;20.040;2022-10-17T18:56:23;21.20;;;13.98;;
54557;SDS011;40452;50.080;20.040;2022-10-17T18:58:49;33.28;;;14.05;;
54557;SDS011;40452;50.080;20.040;2022-10-17T19:01:17;23.90;;;14.07;;
54557;SDS011;40452;50.080;20.040;2022-10-17T19:03:45;25.55;;;13.65;;
54557;SDS011;40452;50.080;20.040;2022-10-17T19:06:12;29.40;;;13.93;;
54557;SDS011;40452;50.080;20.040;2022-10-17T19:08:40;28.38;;;14.93;;
54557;SDS011;40452;50.080;20.040;2022-10-17T19:11:11;26.50;;;14.15;;
54557;SDS011;40452;50.080;20.040;2022-10-17T19:13:38;27.42;;;14.23;;
54557;SDS011;40452;50.080;20.040;2022-10-17T19:16:10;30.75;;;14.68;;
54557;SDS011;40452;50.080;20.040;2022-10-17T19:18:50;32.90;;;15.15;;
54557;SDS011;40452;50.080;20.040;2022-10-17T19:21:18;34.75;;;14.88;;
54557;SDS011;40452;50.080;20.040;2022-10-17T19:23:54;26.73;;;14.63;;
54557;SDS011;40452;50.080;20.040;2022-10-17T19:26:22;37.60;;;15.38;;
54557;SDS011;40452;50.080;20.040;2022-10-17T19:28:49;33.65;;;14.77;;
54557;SDS011;40452;50.080;20.040;2022-10-17T19:31:17;34.42;;;14.95;;
54557;SDS011;40452;50.080;20.040;2022-10-17T19:33:44;33.33;;;14.90;;
54557;SDS011;40452;50.080;20.040;2022-10-17T19:36:11;27.90;;;14.48;;
54557;SDS011;40452;50.080;20.040;2022-10-17T19:38:37;29.20;;;14.98;;
54557;SDS011;40452;50.080;20.040;2022-10-17T19:41:06;40.78;;;15.40;;
54557;SDS011;40452;50.080;20.040;2022-10-17T19:43:37;33.27;;;14.57;;
54557;SDS011;40452;50.080;20.040;2022-10-17T19:46:04;32.67;;;15.35;;
54557;SDS011;40452;50.080;20.040;2022-10-17T19:48:38;35.63;;;15.45;;
54557;SDS011;40452;50.080;20.040;2022-10-17T19:51:05;34.78;;;15.38;;
54557;SDS011;40452;50.080;20.040;2022-10-17T19:53:33;35.53;;;15.10;;
54557;SDS011;40452;50.080;20.040;2022-10-17T19:55:59;32.13;;;14.82;;
54557;SDS011;40452;50.080;20.040;2022-10-17T19:58:25;29.77;;;14.52;;
54557;SDS011;40452;50.080;20.040;2022-10-17T20:00:52;33.17;;;14.70;;
54557;SDS011;40452;50.080;20.040;2022-10-17T20:05:51;32.33;;;15.40;;
54557;SDS011;40452;50.080;20.040;2022-10-17T20:08:17;32.70;;;15.88;;
54557;SDS011;40452;50.080;20.040;2022-10-17T20:10:43;38.95;;;15.57;;
54557;SDS011;40452;50.080;20.040;2022-10-17T20:13:08;36.10;;;15.77;;
54557;SDS011;40452;50.080;20.040;2022-10-17T20:15:34;35.63;;;15.30;;
54557;SDS011;40452;50.080;20.040;2022-10-17T20:18:00;40.28;;;15.50;;
54557;SDS011;40452;50.080;20.040;2022-10-17T20:20:26;30.95;;;15.38;;
54557;SDS011;40452;50.080;20.040;2022-10-17T20:22:52;24.65;;;14.73;;
54557;SDS011;40452;50.080;20.040;2022-10-17T20:25:17;30.38;;;14.85;;
54557;SDS011;40452;50.080;20.040;2022-10-17T20:27:43;27.58;;;14.65;;
54557;SDS011;40452;50.080;20.040;2022-10-17T20:30:09;29.45;;;14.90;;
54557;SDS011;40452;50.080;20.040;2022-10-17T20:32:34;34.42;;;15.80;;
54557;SDS011;40452;50.080;20.040;2022-10-17T20:35:02;33.10;;;15.25;;
54557;SDS011;40452;50.080;20.040;2022-10-17T20:37:31;29.77;;;15.30;;
54557;SDS011;40452;50.080;20.040;2022-10-17T20:39:58;30.13;;;15.55;;
54557;SDS011;40452;50.080;20.040;2022-10-17T20:42:24;32.22;;;15.55;;
54557;SDS011;40452;50.080;20.040;2022-10-17T20:44:51;39.88;;;16.00;;
54557;SDS011;40452;50.080;20.040;2022-10-17T20:47:16;34.22;;;15.27;;
54557;SDS011;40452;50.080;20.040;2022-10-17T20:49:42;31.42;;;16.38;;
54557;SDS011;40452;50.080;20.040;2022-10-17T20:52:08;32.47;;;16.23;;
54557;SDS011;40452;50.080;20.040;2022-10-17T20:54:33;28.00;;;16.33;;
54557;SDS011;40452;50.080;20.040;2022-10-17T20:56:59;30.55;;;17.20;;
54557;SDS011;40452;50.080;20.040;2022-10-17T20:59:24;34.17;;;17.02;;
54557;SDS011;40452;50.080;20.040;2022-10-17T21:01:51;36.25;;;16.65;;
54557;SDS011;40452;50.080;20.040;2022-10-17T21:04:18;35.30;;;16.95;;
54557;SDS011;40452;50.080;20.040;2022-10-17T21:06:44;28.42;;;16.42;;
54557;SDS011;40452;50.080;20.040;2022-10-17T21:09:12;33.75;;;17.15;;
